sensor_id;sensor_type;location;lat;lon;timestamp;P1;durP1;ratioP1;P2;durP2;ratioP2
11935;SDS011;6027;48.576;9.180;2022-09-09T00:02:19;4.00;;;0.90;;
11935;SDS011;6027;48.576;9.180;2022-09-09T00:04:49;2.28;;;1.20;;
11935;SDS011;6027;48.576;9.180;2022-09-09T00:18:36;4.95;;;1.13;;
11935;SDS011;6027;48.576;9.180;2022-09-09T00:23:39;1.95;;;1.08;;
11935;SDS011;6027;48.576;9.180;2022-09-09T00:29:12;6.28;;;1.20;;
11935;SDS011;6027;48.576;9.180;2022-09-09T00:31:39;2.03;;;0.88;;
11935;SDS011;6027;48.576;9.180;2022-09-09T00:34:08;2.45;;;0.90;;
11935;SDS011;6027;48.576;9.180;2022-09-09T00:36:38;3.58;;;1.25;;
11935;SDS011;6027;48.576;9.180;2022-09-09T00:39:04;1.00;;;0.80;;
11935;SDS011;6027;48.576;9.180;2022-09-09T00:44:32;2.35;;;1.10;;
11935;SDS011;6027;48.576;9.180;2022-09-09T00:57:45;2.08;;;1.08;;
11935;SDS011;6027;48.576;9.180;2022-09-09T01:02:57;3.40;;;1.23;;
11935;SDS011;6027;48.576;9.180;2022-09-09T01:11:20;3.63;;;1.02;;
11935;SDS011;6027;48.576;9.180;2022-09-09T01:13:49;2.65;;;1.02;;
11935;SDS011;6027;48.576;9.180;2022-09-09T01:16:25;2.10;;;1.02;;
11935;SDS011;6027;48.576;9.180;2022-09-09T01:18:53;2.35;;;1.00;;
11935;SDS011;6027;48.576;9.180;2022-09-09T01:21:41;7.03;;;1.25;;
11935;SDS011;6027;48.576;9.180;2022-09-09T01:24:18;1.92;;;0.90;;
11935;SDS011;6027;48.576;9.180;2022-09-09T01:26:45;3.78;;;0.90;;
11935;SDS011;6027;48.576;9.180;2022-09-09T01:29:12;2.15;;;0.85;;
11935;SDS011;6027;48.576;9.180;2022-09-09T01:31:41;3.05;;;1.00;;
11935;SDS011;6027;48.576;9.180;2022-09-09T01:34:17;2.40;;;1.10;;
11935;SDS011;6027;48.576;9.180;2022-09-09T01:36:44;3.08;;;1.08;;
11935;SDS011;6027;48.576;9.180;2022-09-09T01:39:16;2.05;;;1.08;;
11935;SDS011;6027;48.576;9.180;2022-09-09T01:41:42;1.15;;;0.98;;
11935;SDS011;6027;48.576;9.180;2022-09-09T01:44:08;3.40;;;1.40;;
11935;SDS011;6027;48.576;9.180;2022-09-09T01:46:34;1.52;;;0.80;;
11935;SDS011;6027;48.576;9.180;2022-09-09T01:49:01;1.45;;;1.00;;
11935;SDS011;6027;48.576;9.180;2022-09-09T01:51:29;3.45;;;1.02;;
11935;SDS011;6027;48.576;9.180;2022-09-09T01:53:55;2.55;;;1.08;;
11935;SDS011;6027;48.576;9.180;2022-09-09T02:07:00;2.80;;;1.02;;
11935;SDS011;6027;48.576;9.180;2022-09-09T02:09:27;2.90;;;1.00;;
11935;SDS011;6027;48.576;9.180;2022-09-09T02:12:05;3.53;;;1.08;;
11935;SDS011;6027;48.576;9.180;2022-09-09T02:14:39;2.00;;;0.90;;
11935;SDS011;6027;48.576;9.180;2022-09-09T02:17:08;1.50;;;0.90;;
11935;SDS011;6027;48.576;9.180;2022-09-09T02:19:46;4.47;;;1.08;;
11935;SDS011;6027;48.576;9.180;2022-09-09T02:22:17;1.48;;;0.93;;
11935;SDS011;6027;48.576;9.180;2022-09-09T02:24:46;4.35;;;1.00;;
11935;SDS011;6027;48.576;9.180;2022-09-09T02:27:15;1.70;;;0.90;;
11935;SDS011;6027;48.576;9.180;2022-09-09T02:29:43;4.30;;;1.25;;
11935;SDS011;6027;48.576;9.180;2022-09-09T02:32:13;3.85;;;1.10;;
11935;SDS011;6027;48.576;9.180;2022-09-09T02:34:43;1.95;;;1.20;;
11935;SDS011;6027;48.576;9.180;2022-09-09T02:37:13;3.95;;;1.20;;
11935;SDS011;6027;48.576;9.180;2022-09-09T02:39:42;3.53;;;1.10;;
11935;SDS011;6027;48.576;9.180;2022-09-09T02:42:08;2.67;;;0.95;;
11935;SDS011;6027;48.576;9.180;2022-09-09T02:44:33;2.70;;;1.02;;
11935;SDS011;6027;48.576;9.180;2022-09-09T02:52:16;2.28;;;1.00;;
11935;SDS011;6027;48.576;9.180;2022-09-09T02:54:47;1.85;;;1.00;;
11935;SDS011;6027;48.576;9.180;2022-09-09T02:57:21;6.10;;;1.23;;
11935;SDS011;6027;48.576;9.180;2022-09-09T02:59:50;3.17;;;1.10;;
11935;SDS011;6027;48.576;9.180;2022-09-09T03:02:17;2.63;;;0.90;;
11935;SDS011;6027;48.576;9.180;2022-09-09T03:04:43;2.88;;;1.00;;
11935;SDS011;6027;48.576;9.180;2022-09-09T03:07:09;3.13;;;1.30;;
11935;SDS011;6027;48.576;9.180;2022-09-09T03:09:36;2.90;;;1.30;;
11935;SDS011;6027;48.576;9.180;2022-09-09T03:12:01;2.60;;;1.02;;
11935;SDS011;6027;48.576;9.180;2022-09-09T03:14:29;2.80;;;1.33;;
11935;SDS011;6027;48.576;9.180;2022-09-09T03:16:55;3.72;;;0.95;;
11935;SDS011;6027;48.576;9.180;2022-09-09T03:19:23;2.83;;;1.25;;
11935;SDS011;6027;48.576;9.180;2022-09-09T03:21:48;4.07;;;1.33;;
11935;SDS011;6027;48.576;9.180;2022-09-09T03:24:14;6.03;;;1.33;;
11935;SDS011;6027;48.576;9.180;2022-09-09T03:26:41;2.38;;;1.02;;
11935;SDS011;6027;48.576;9.180;2022-09-09T03:29:10;3.00;;;1.60;;
11935;SDS011;6027;48.576;9.180;2022-09-09T03:31:37;4.85;;;1.45;;
11935;SDS011;6027;48.576;9.180;2022-09-09T03:34:04;3.38;;;1.20;;
11935;SDS011;6027;48.576;9.180;2022-09-09T03:36:30;4.53;;;1.23;;
11935;SDS011;6027;48.576;9.180;2022-09-09T03:38:56;5.38;;;1.50;;
11935;SDS011;6027;48.576;9.180;2022-09-09T03:41:22;3.58;;;1.25;;
11935;SDS011;6027;48.576;9.180;2022-09-09T03:43:52;2.17;;;1.35;;
11935;SDS011;6027;48.576;9.180;2022-09-09T03:46:19;5.72;;;1.30;;
11935;SDS011;6027;48.576;9.180;2022-09-09T03:48:46;4.25;;;1.13;;
11935;SDS011;6027;48.576;9.180;2022-09-09T03:51:12;2.97;;;1.33;;
11935;SDS011;6027;48.576;9.180;2022-09-09T03:53:38;4.75;;;1.45;;
11935;SDS011;6027;48.576;9.180;2022-09-09T03:56:04;4.88;;;1.30;;
11935;SDS011;6027;48.576;9.180;2022-09-09T03:58:31;3.75;;;1.80;;
11935;SDS011;6027;48.576;9.180;2022-09-09T04:01:05;2.88;;;1.30;;
11935;SDS011;6027;48.576;9.180;2022-09-09T04:03:36;5.05;;;1.13;;
11935;SDS011;6027;48.576;9.180;2022-09-09T04:06:02;4.03;;;1.40;;
11935;SDS011;6027;48.576;9.180;2022-09-09T04:08:29;3.67;;;1.38;;
11935;SDS011;6027;48.576;9.180;2022-09-09T04:10:56;4.68;;;1.30;;
11935;SDS011;6027;48.576;9.180;2022-09-09T04:13:23;2.92;;;1.30;;
11935;SDS011;6027;48.576;9.180;2022-09-09T04:15:53;2.60;;;1.33;;
11935;SDS011;6027;48.576;9.180;2022-09-09T04:18:20;4.82;;;1.60;;
11935;SDS011;6027;48.576;9.180;2022-09-09T04:20:47;2.60;;;1.35;;
11935;SDS011;6027;48.576;9.180;2022-09-09T04:23:16;2.75;;;1.25;;
11935;SDS011;6027;48.576;9.180;2022-09-09T04:25:49;3.45;;;1.50;;
11935;SDS011;6027;48.576;9.180;2022-09-09T04:28:19;4.60;;;1.20;;
11935;SDS011;6027;48.576;9.180;2022-09-09T04:30:46;4.38;;;1.67;;
11935;SDS011;6027;48.576;9.180;2022-09-09T04:33:12;2.25;;;1.20;;
11935;SDS011;6027;48.576;9.180;2022-09-09T04:35:39;5.57;;;1.27;;
11935;SDS011;6027;48.576;9.180;2022-09-09T04:38:08;2.00;;;1.02;;
11935;SDS011;6027;48.576;9.180;2022-09-09T04:40:34;3.13;;;1.42;;
11935;SDS011;6027;48.576;9.180;2022-09-09T04:43:00;3.22;;;1.52;;
11935;SDS011;6027;48.576;9.180;2022-09-09T04:45:28;3.22;;;1.40;;
11935;SDS011;6027;48.576;9.180;2022-09-09T04:47:53;2.50;;;1.20;;
11935;SDS011;6027;48.576;9.180;2022-09-09T04:50:19;4.28;;;1.27;;
11935;SDS011;6027;48.576;9.180;2022-09-09T04:52:44;3.92;;;1.10;;
11935;SDS011;6027;48.576;9.180;2022-09-09T04:55:10;2.45;;;1.10;;
11935;SDS011;6027;48.576;9.180;2022-09-09T04:57:35;2.00;;;1.20;;
11935;SDS011;6027;48.576;9.180;2022-09-09T05:00:01;3.83;;;1.30;;
11935;SDS011;6027;48.576;9.180;2022-09-09T05:02:29;1.90;;;1.35;;
11935;SDS011;6027;48.576;9.180;2022-09-09T05:04:55;3.17;;;1.35;;
11935;SDS011;6027;48.576;9.180;2022-09-09T05:07:21;2.25;;;1.08;;
11935;SDS011;6027;48.576;9.180;2022-09-09T05:09:47;4.32;;;1.20;;
11935;SDS011;6027;48.576;9.180;2022-09-09T05:12:14;2.03;;;1.17;;
11935;SDS011;6027;48.576;9.180;2022-09-09T05:14:42;2.53;;;1.25;;
11935;SDS011;6027;48.576;9.180;2022-09-09T05:17:08;3.42;;;1.58;;
11935;SDS011;6027;48.576;9.180;2022-09-09T05:19:34;3.42;;;1.30;;
11935;SDS011;6027;48.576;9.180;2022-09-09T05:22:00;3.50;;;1.50;;
11935;SDS011;6027;48.576;9.180;2022-09-09T05:24:26;3.67;;;1.38;;
11935;SDS011;6027;48.576;9.180;2022-09-09T05:26:52;2.85;;;1.40;;
11935;SDS011;6027;48.576;9.180;2022-09-09T05:29:17;2.20;;;1.20;;
11935;SDS011;6027;48.576;9.180;2022-09-09T05:31:44;6.32;;;1.38;;
11935;SDS011;6027;48.576;9.180;2022-09-09T05:34:10;2.17;;;1.33;;
11935;SDS011;6027;48.576;9.180;2022-09-09T05:36:36;2.38;;;0.95;;
11935;SDS011;6027;48.576;9.180;2022-09-09T05:39:02;2.90;;;1.15;;
11935;SDS011;6027;48.576;9.180;2022-09-09T05:41:31;3.22;;;1.30;;
11935;SDS011;6027;48.576;9.180;2022-09-09T05:43:56;5.10;;;1.60;;
11935;SDS011;6027;48.576;9.180;2022-09-09T05:46:24;2.17;;;1.08;;
11935;SDS011;6027;48.576;9.180;2022-09-09T05:48:50;3.03;;;1.30;;
11935;SDS011;6027;48.576;9.180;2022-09-09T05:51:17;2.13;;;1.30;;
11935;SDS011;6027;48.576;9.180;2022-09-09T05:53:55;2.95;;;1.10;;
11935;SDS011;6027;48.576;9.180;2022-09-09T05:56:24;2.95;;;1.30;;
11935;SDS011;6027;48.576;9.180;2022-09-09T05:58:52;5.13;;;1.40;;
11935;SDS011;6027;48.576;9.180;2022-09-09T06:01:34;2.97;;;1.05;;
11935;SDS011;6027;48.576;9.180;2022-09-09T06:04:01;3.65;;;1.65;;
11935;SDS011;6027;48.576;9.180;2022-09-09T06:06:30;3.78;;;1.30;;
11935;SDS011;6027;48.576;9.180;2022-09-09T06:08:57;1.63;;;1.00;;
11935;SDS011;6027;48.576;9.180;2022-09-09T06:11:24;3.40;;;1.40;;
11935;SDS011;6027;48.576;9.180;2022-09-09T06:13:54;4.10;;;1.10;;
11935;SDS011;6027;48.576;9.180;2022-09-09T06:16:24;4.28;;;1.40;;
11935;SDS011;6027;48.576;9.180;2022-09-09T06:18:55;1.88;;;1.08;;
11935;SDS011;6027;48.576;9.180;2022-09-09T06:21:23;5.35;;;1.17;;
11935;SDS011;6027;48.576;9.180;2022-09-09T06:23:50;2.55;;;1.70;;
11935;SDS011;6027;48.576;9.180;2022-09-09T06:26:17;2.38;;;1.10;;
11935;SDS011;6027;48.576;9.180;2022-09-09T06:28:48;3.42;;;1.27;;
11935;SDS011;6027;48.576;9.180;2022-09-09T06:31:16;2.60;;;1.60;;
11935;SDS011;6027;48.576;9.180;2022-09-09T06:33:46;9.02;;;1.95;;
11935;SDS011;6027;48.576;9.180;2022-09-09T06:36:13;3.22;;;1.23;;
11935;SDS011;6027;48.576;9.180;2022-09-09T06:38:44;4.55;;;1.10;;
11935;SDS011;6027;48.576;9.180;2022-09-09T06:41:11;4.35;;;1.40;;
11935;SDS011;6027;48.576;9.180;2022-09-09T06:43:37;3.40;;;1.40;;
11935;SDS011;6027;48.576;9.180;2022-09-09T06:46:05;2.90;;;1.17;;
11935;SDS011;6027;48.576;9.180;2022-09-09T06:48:41;4.53;;;1.45;;
11935;SDS011;6027;48.576;9.180;2022-09-09T06:51:10;2.33;;;1.27;;
11935;SDS011;6027;48.576;9.180;2022-09-09T06:53:55;2.95;;;1.25;;
11935;SDS011;6027;48.576;9.180;2022-09-09T06:56:23;3.42;;;1.20;;
11935;SDS011;6027;48.576;9.180;2022-09-09T06:58:50;3.22;;;1.13;;
11935;SDS011;6027;48.576;9.180;2022-09-09T07:01:23;3.10;;;1.20;;
11935;SDS011;6027;48.576;9.180;2022-09-09T07:03:54;2.90;;;1.30;;
11935;SDS011;6027;48.576;9.180;2022-09-09T07:06:21;2.92;;;1.50;;
11935;SDS011;6027;48.576;9.180;2022-09-09T07:08:52;3.30;;;1.27;;
11935;SDS011;6027;48.576;9.180;2022-09-09T07:11:20;3.58;;;1.25;;
11935;SDS011;6027;48.576;9.180;2022-09-09T07:13:47;2.10;;;1.17;;
11935;SDS011;6027;48.576;9.180;2022-09-09T07:16:14;4.88;;;1.10;;
11935;SDS011;6027;48.576;9.180;2022-09-09T07:18:41;5.20;;;1.30;;
11935;SDS011;6027;48.576;9.180;2022-09-09T07:21:07;1.70;;;1.08;;
11935;SDS011;6027;48.576;9.180;2022-09-09T07:23:34;3.58;;;1.20;;
11935;SDS011;6027;48.576;9.180;2022-09-09T07:26:01;3.70;;;1.30;;
11935;SDS011;6027;48.576;9.180;2022-09-09T07:28:28;2.17;;;1.05;;
11935;SDS011;6027;48.576;9.180;2022-09-09T07:30:56;3.88;;;1.20;;
11935;SDS011;6027;48.576;9.180;2022-09-09T07:33:24;2.40;;;1.10;;
11935;SDS011;6027;48.576;9.180;2022-09-09T07:35:50;1.83;;;1.00;;
11935;SDS011;6027;48.576;9.180;2022-09-09T07:38:17;2.92;;;1.23;;
11935;SDS011;6027;48.576;9.180;2022-09-09T07:40:44;2.80;;;1.25;;
11935;SDS011;6027;48.576;9.180;2022-09-09T07:43:09;1.75;;;1.23;;
11935;SDS011;6027;48.576;9.180;2022-09-09T07:45:39;3.85;;;1.20;;
11935;SDS011;6027;48.576;9.180;2022-09-09T07:48:06;4.15;;;1.25;;
11935;SDS011;6027;48.576;9.180;2022-09-09T07:50:31;2.78;;;1.00;;
11935;SDS011;6027;48.576;9.180;2022-09-09T07:52:57;1.83;;;1.05;;
11935;SDS011;6027;48.576;9.180;2022-09-09T07:55:23;2.38;;;1.30;;
11935;SDS011;6027;48.576;9.180;2022-09-09T07:57:52;1.73;;;1.15;;
11935;SDS011;6027;48.576;9.180;2022-09-09T08:00:18;2.80;;;1.30;;
11935;SDS011;6027;48.576;9.180;2022-09-09T08:02:45;4.60;;;1.20;;
11935;SDS011;6027;48.576;9.180;2022-09-09T08:05:11;3.25;;;1.27;;
11935;SDS011;6027;48.576;9.180;2022-09-09T08:07:38;5.65;;;1.38;;
11935;SDS011;6027;48.576;9.180;2022-09-09T08:10:03;4.03;;;0.90;;
11935;SDS011;6027;48.576;9.180;2022-09-09T08:12:29;2.33;;;1.30;;
11935;SDS011;6027;48.576;9.180;2022-09-09T08:14:55;4.75;;;1.40;;
11935;SDS011;6027;48.576;9.180;2022-09-09T08:17:20;3.70;;;1.35;;
11935;SDS011;6027;48.576;9.180;2022-09-09T08:19:46;4.03;;;1.17;;
11935;SDS011;6027;48.576;9.180;2022-09-09T08:22:11;2.42;;;1.02;;
11935;SDS011;6027;48.576;9.180;2022-09-09T08:24:36;4.00;;;1.10;;
11935;SDS011;6027;48.576;9.180;2022-09-09T08:27:02;3.53;;;1.00;;
11935;SDS011;6027;48.576;9.180;2022-09-09T08:29:27;1.63;;;1.08;;
11935;SDS011;6027;48.576;9.180;2022-09-09T08:31:54;1.95;;;1.13;;
11935;SDS011;6027;48.576;9.180;2022-09-09T08:34:22;2.78;;;1.00;;
11935;SDS011;6027;48.576;9.180;2022-09-09T08:36:49;3.42;;;1.15;;
11935;SDS011;6027;48.576;9.180;2022-09-09T08:39:17;2.28;;;1.20;;
11935;SDS011;6027;48.576;9.180;2022-09-09T08:52:46;4.15;;;1.30;;
11935;SDS011;6027;48.576;9.180;2022-09-09T08:55:25;1.65;;;1.05;;
11935;SDS011;6027;48.576;9.180;2022-09-09T08:58:09;4.03;;;1.30;;
11935;SDS011;6027;48.576;9.180;2022-09-09T09:00:41;2.03;;;1.10;;
11935;SDS011;6027;48.576;9.180;2022-09-09T09:03:24;3.35;;;1.20;;
11935;SDS011;6027;48.576;9.180;2022-09-09T09:06:19;3.25;;;1.20;;
11935;SDS011;6027;48.576;9.180;2022-09-09T09:11:39;7.30;;;1.30;;
11935;SDS011;6027;48.576;9.180;2022-09-09T09:19:40;3.35;;;1.35;;
11935;SDS011;6027;48.576;9.180;2022-09-09T09:27:58;3.53;;;1.30;;
11935;SDS011;6027;48.576;9.180;2022-09-09T09:30:44;2.60;;;1.23;;
11935;SDS011;6027;48.576;9.180;2022-09-09T09:33:20;4.07;;;1.30;;
11935;SDS011;6027;48.576;9.180;2022-09-09T09:35:50;4.78;;;1.20;;
11935;SDS011;6027;48.576;9.180;2022-09-09T09:38:19;3.47;;;1.33;;
11935;SDS011;6027;48.576;9.180;2022-09-09T09:40:48;4.18;;;1.38;;
11935;SDS011;6027;48.576;9.180;2022-09-09T09:43:18;4.18;;;1.30;;
11935;SDS011;6027;48.576;9.180;2022-09-09T09:45:47;4.07;;;1.40;;
11935;SDS011;6027;48.576;9.180;2022-09-09T09:48:13;3.80;;;1.17;;
11935;SDS011;6027;48.576;9.180;2022-09-09T09:50:58;3.83;;;1.10;;
11935;SDS011;6027;48.576;9.180;2022-09-09T09:53:27;3.22;;;1.20;;
11935;SDS011;6027;48.576;9.180;2022-09-09T09:55:59;6.30;;;1.27;;
11935;SDS011;6027;48.576;9.180;2022-09-09T09:58:27;4.47;;;1.13;;
11935;SDS011;6027;48.576;9.180;2022-09-09T10:00:57;2.88;;;1.30;;
11935;SDS011;6027;48.576;9.180;2022-09-09T10:03:25;4.53;;;1.20;;
11935;SDS011;6027;48.576;9.180;2022-09-09T10:05:55;3.28;;;1.20;;
11935;SDS011;6027;48.576;9.180;2022-09-09T10:08:26;2.55;;;1.23;;
11935;SDS011;6027;48.576;9.180;2022-09-09T10:10:58;3.33;;;1.23;;
11935;SDS011;6027;48.576;9.180;2022-09-09T10:21:46;2.17;;;1.00;;
11935;SDS011;6027;48.576;9.180;2022-09-09T10:24:34;2.45;;;0.90;;
11935;SDS011;6027;48.576;9.180;2022-09-09T10:27:11;1.55;;;1.02;;
11935;SDS011;6027;48.576;9.180;2022-09-09T10:30:00;4.72;;;1.30;;
11935;SDS011;6027;48.576;9.180;2022-09-09T10:38:10;3.17;;;1.10;;
11935;SDS011;6027;48.576;9.180;2022-09-09T10:48:54;3.38;;;1.20;;
11935;SDS011;6027;48.576;9.180;2022-09-09T10:51:40;1.63;;;0.93;;
11935;SDS011;6027;48.576;9.180;2022-09-09T10:54:18;2.05;;;1.27;;
11935;SDS011;6027;48.576;9.180;2022-09-09T10:56:54;3.10;;;1.00;;
11935;SDS011;6027;48.576;9.180;2022-09-09T10:59:26;3.72;;;1.20;;
11935;SDS011;6027;48.576;9.180;2022-09-09T11:02:01;2.92;;;1.17;;
11935;SDS011;6027;48.576;9.180;2022-09-09T11:08:03;4.07;;;1.38;;
11935;SDS011;6027;48.576;9.180;2022-09-09T11:10:34;2.70;;;1.23;;
11935;SDS011;6027;48.576;9.180;2022-09-09T11:13:11;2.55;;;1.00;;
11935;SDS011;6027;48.576;9.180;2022-09-09T11:15:52;1.38;;;1.00;;
11935;SDS011;6027;48.576;9.180;2022-09-09T11:18:21;2.75;;;0.90;;
11935;SDS011;6027;48.576;9.180;2022-09-09T11:20:49;1.50;;;0.98;;
11935;SDS011;6027;48.576;9.180;2022-09-09T11:23:20;2.05;;;0.90;;
11935;SDS011;6027;48.576;9.180;2022-09-09T11:25:55;2.17;;;1.02;;
11935;SDS011;6027;48.576;9.180;2022-09-09T11:37:05;3.83;;;0.90;;
11935;SDS011;6027;48.576;9.180;2022-09-09T11:42:20;1.73;;;0.70;;
11935;SDS011;6027;48.576;9.180;2022-09-09T11:44:49;3.58;;;1.15;;
11935;SDS011;6027;48.576;9.180;2022-09-09T11:47:24;0.98;;;0.80;;
11935;SDS011;6027;48.576;9.180;2022-09-09T11:52:40;3.38;;;0.82;;
11935;SDS011;6027;48.576;9.180;2022-09-09T11:57:58;1.35;;;0.65;;
11935;SDS011;6027;48.576;9.180;2022-09-09T12:03:02;2.50;;;0.85;;
11935;SDS011;6027;48.576;9.180;2022-09-09T12:05:37;2.17;;;0.82;;
11935;SDS011;6027;48.576;9.180;2022-09-09T12:08:10;2.17;;;0.80;;
11935;SDS011;6027;48.576;9.180;2022-09-09T12:10:52;2.58;;;0.80;;
11935;SDS011;6027;48.576;9.180;2022-09-09T12:13:20;1.15;;;0.70;;
11935;SDS011;6027;48.576;9.180;2022-09-09T12:15:49;1.40;;;0.90;;
11935;SDS011;6027;48.576;9.180;2022-09-09T12:18:32;3.58;;;0.85;;
11935;SDS011;6027;48.576;9.180;2022-09-09T12:24:11;3.17;;;1.00;;
11935;SDS011;6027;48.576;9.180;2022-09-09T12:26:43;1.98;;;0.80;;
11935;SDS011;6027;48.576;9.180;2022-09-09T12:34:38;3.72;;;1.15;;
11935;SDS011;6027;48.576;9.180;2022-09-09T12:37:25;1.92;;;0.88;;
11935;SDS011;6027;48.576;9.180;2022-09-09T12:40:20;1.88;;;0.98;;
11935;SDS011;6027;48.576;9.180;2022-09-09T12:42:48;1.92;;;0.95;;
11935;SDS011;6027;48.576;9.180;2022-09-09T12:45:20;3.72;;;0.90;;
11935;SDS011;6027;48.576;9.180;2022-09-09T12:47:57;2.30;;;0.88;;
11935;SDS011;6027;48.576;9.180;2022-09-09T12:50:27;1.92;;;0.77;;
11935;SDS011;6027;48.576;9.180;2022-09-09T12:53:03;3.05;;;0.90;;
11935;SDS011;6027;48.576;9.180;2022-09-09T12:55:36;2.85;;;1.02;;
11935;SDS011;6027;48.576;9.180;2022-09-09T12:58:03;1.52;;;0.82;;
11935;SDS011;6027;48.576;9.180;2022-09-09T13:00:31;2.30;;;0.90;;
11935;SDS011;6027;48.576;9.180;2022-09-09T13:02:58;2.05;;;0.98;;
11935;SDS011;6027;48.576;9.180;2022-09-09T13:05:35;3.78;;;0.75;;
11935;SDS011;6027;48.576;9.180;2022-09-09T13:08:06;3.53;;;1.17;;
11935;SDS011;6027;48.576;9.180;2022-09-09T13:10:56;1.92;;;0.73;;
11935;SDS011;6027;48.576;9.180;2022-09-09T13:13:42;2.33;;;0.70;;
11935;SDS011;6027;48.576;9.180;2022-09-09T13:16:28;3.30;;;0.95;;
11935;SDS011;6027;48.576;9.180;2022-09-09T13:19:07;1.65;;;0.82;;
11935;SDS011;6027;48.576;9.180;2022-09-09T13:21:39;2.85;;;0.88;;
11935;SDS011;6027;48.576;9.180;2022-09-09T13:24:06;3.40;;;0.90;;
11935;SDS011;6027;48.576;9.180;2022-09-09T13:26:56;2.50;;;1.10;;
11935;SDS011;6027;48.576;9.180;2022-09-09T13:29:23;4.70;;;1.15;;
11935;SDS011;6027;48.576;9.180;2022-09-09T13:31:49;3.83;;;1.33;;
11935;SDS011;6027;48.576;9.180;2022-09-09T13:34:28;2.78;;;1.27;;
11935;SDS011;6027;48.576;9.180;2022-09-09T13:36:58;1.48;;;1.00;;
11935;SDS011;6027;48.576;9.180;2022-09-09T13:39:27;1.65;;;0.90;;
11935;SDS011;6027;48.576;9.180;2022-09-09T13:41:53;2.53;;;1.10;;
11935;SDS011;6027;48.576;9.180;2022-09-09T13:44:27;6.93;;;1.10;;
11935;SDS011;6027;48.576;9.180;2022-09-09T13:49:33;1.95;;;0.90;;
11935;SDS011;6027;48.576;9.180;2022-09-09T13:52:08;1.77;;;0.95;;
11935;SDS011;6027;48.576;9.180;2022-09-09T13:54:36;1.27;;;0.68;;
11935;SDS011;6027;48.576;9.180;2022-09-09T13:57:02;4.25;;;1.10;;
11935;SDS011;6027;48.576;9.180;2022-09-09T13:59:27;3.10;;;1.17;;
11935;SDS011;6027;48.576;9.180;2022-09-09T14:01:53;1.50;;;0.70;;
11935;SDS011;6027;48.576;9.180;2022-09-09T14:04:19;3.47;;;0.90;;
11935;SDS011;6027;48.576;9.180;2022-09-09T14:06:47;3.13;;;1.05;;
11935;SDS011;6027;48.576;9.180;2022-09-09T14:09:14;2.67;;;0.85;;
11935;SDS011;6027;48.576;9.180;2022-09-09T14:11:41;4.65;;;0.70;;
11935;SDS011;6027;48.576;9.180;2022-09-09T14:14:08;2.22;;;0.82;;
11935;SDS011;6027;48.576;9.180;2022-09-09T14:16:34;2.35;;;0.93;;
11935;SDS011;6027;48.576;9.180;2022-09-09T14:18:59;3.28;;;0.90;;
11935;SDS011;6027;48.576;9.180;2022-09-09T14:21:25;1.55;;;0.70;;
11935;SDS011;6027;48.576;9.180;2022-09-09T14:23:52;3.65;;;1.13;;
11935;SDS011;6027;48.576;9.180;2022-09-09T14:26:18;2.95;;;0.90;;
11935;SDS011;6027;48.576;9.180;2022-09-09T14:28:46;1.80;;;0.70;;
11935;SDS011;6027;48.576;9.180;2022-09-09T14:31:12;1.77;;;0.65;;
11935;SDS011;6027;48.576;9.180;2022-09-09T14:33:43;3.88;;;0.95;;
11935;SDS011;6027;48.576;9.180;2022-09-09T14:36:09;2.97;;;0.98;;
11935;SDS011;6027;48.576;9.180;2022-09-09T14:38:37;2.70;;;0.95;;
11935;SDS011;6027;48.576;9.180;2022-09-09T14:41:07;3.40;;;0.80;;
11935;SDS011;6027;48.576;9.180;2022-09-09T14:43:35;2.03;;;0.90;;
11935;SDS011;6027;48.576;9.180;2022-09-09T14:46:09;1.83;;;0.65;;
11935;SDS011;6027;48.576;9.180;2022-09-09T14:48:39;3.35;;;1.15;;
11935;SDS011;6027;48.576;9.180;2022-09-09T14:51:19;3.58;;;1.10;;
11935;SDS011;6027;48.576;9.180;2022-09-09T14:53:51;1.00;;;0.75;;
11935;SDS011;6027;48.576;9.180;2022-09-09T14:56:19;2.55;;;0.80;;
11935;SDS011;6027;48.576;9.180;2022-09-09T14:58:47;0.95;;;0.65;;
11935;SDS011;6027;48.576;9.180;2022-09-09T15:01:14;2.75;;;0.80;;
11935;SDS011;6027;48.576;9.180;2022-09-09T15:03:42;1.92;;;0.60;;
11935;SDS011;6027;48.576;9.180;2022-09-09T15:06:13;1.67;;;0.60;;
11935;SDS011;6027;48.576;9.180;2022-09-09T15:08:40;3.40;;;0.90;;
11935;SDS011;6027;48.576;9.180;2022-09-09T15:11:07;1.58;;;0.80;;
11935;SDS011;6027;48.576;9.180;2022-09-09T15:13:35;1.83;;;0.77;;
11935;SDS011;6027;48.576;9.180;2022-09-09T15:16:12;9.30;;;1.10;;
11935;SDS011;6027;48.576;9.180;2022-09-09T15:18:39;3.55;;;0.68;;
11935;SDS011;6027;48.576;9.180;2022-09-09T15:21:10;1.70;;;0.75;;
11935;SDS011;6027;48.576;9.180;2022-09-09T15:23:40;3.05;;;1.00;;
11935;SDS011;6027;48.576;9.180;2022-09-09T15:26:06;1.13;;;0.70;;
11935;SDS011;6027;48.576;9.180;2022-09-09T15:28:32;3.60;;;0.80;;
11935;SDS011;6027;48.576;9.180;2022-09-09T15:31:04;2.50;;;0.80;;
11935;SDS011;6027;48.576;9.180;2022-09-09T15:33:39;2.72;;;0.90;;
11935;SDS011;6027;48.576;9.180;2022-09-09T15:36:13;2.90;;;0.88;;
11935;SDS011;6027;48.576;9.180;2022-09-09T15:38:40;2.67;;;0.77;;
11935;SDS011;6027;48.576;9.180;2022-09-09T15:41:06;5.53;;;0.88;;
11935;SDS011;6027;48.576;9.180;2022-09-09T15:45:59;2.10;;;0.90;;
11935;SDS011;6027;48.576;9.180;2022-09-09T15:48:49;3.90;;;0.93;;
11935;SDS011;6027;48.576;9.180;2022-09-09T15:51:15;1.42;;;0.80;;
11935;SDS011;6027;48.576;9.180;2022-09-09T15:53:41;1.80;;;0.77;;
11935;SDS011;6027;48.576;9.180;2022-09-09T15:56:07;2.15;;;0.90;;
11935;SDS011;6027;48.576;9.180;2022-09-09T15:58:33;1.70;;;0.70;;
11935;SDS011;6027;48.576;9.180;2022-09-09T16:01:10;3.83;;;0.77;;
11935;SDS011;6027;48.576;9.180;2022-09-09T16:03:38;1.85;;;0.70;;
11935;SDS011;6027;48.576;9.180;2022-09-09T16:06:11;1.42;;;0.70;;
11935;SDS011;6027;48.576;9.180;2022-09-09T16:08:39;2.58;;;0.60;;
11935;SDS011;6027;48.576;9.180;2022-09-09T16:13:35;1.33;;;0.50;;
11935;SDS011;6027;48.576;9.180;2022-09-09T16:16:02;0.88;;;0.50;;
11935;SDS011;6027;48.576;9.180;2022-09-09T16:18:33;1.13;;;0.40;;
11935;SDS011;6027;48.576;9.180;2022-09-09T16:21:03;1.90;;;0.50;;
11935;SDS011;6027;48.576;9.180;2022-09-09T16:23:30;0.88;;;0.50;;
11935;SDS011;6027;48.576;9.180;2022-09-09T16:25:57;1.65;;;0.60;;
11935;SDS011;6027;48.576;9.180;2022-09-09T16:28:23;0.73;;;0.60;;
11935;SDS011;6027;48.576;9.180;2022-09-09T16:30:48;1.15;;;0.60;;
11935;SDS011;6027;48.576;9.180;2022-09-09T16:33:14;1.15;;;0.52;;
11935;SDS011;6027;48.576;9.180;2022-09-09T16:35:41;2.97;;;0.80;;
11935;SDS011;6027;48.576;9.180;2022-09-09T16:38:06;1.30;;;0.88;;
11935;SDS011;6027;48.576;9.180;2022-09-09T16:40:35;1.10;;;0.50;;
11935;SDS011;6027;48.576;9.180;2022-09-09T16:43:06;3.10;;;0.88;;
11935;SDS011;6027;48.576;9.180;2022-09-09T16:45:32;1.13;;;0.55;;
11935;SDS011;6027;48.576;9.180;2022-09-09T16:48:01;0.50;;;0.50;;
11935;SDS011;6027;48.576;9.180;2022-09-09T16:50:26;0.98;;;0.60;;
11935;SDS011;6027;48.576;9.180;2022-09-09T16:52:52;1.13;;;0.80;;
11935;SDS011;6027;48.576;9.180;2022-09-09T16:55:18;1.67;;;0.80;;
11935;SDS011;6027;48.576;9.180;2022-09-09T16:57:45;1.15;;;0.70;;
11935;SDS011;6027;48.576;9.180;2022-09-09T17:00:14;1.00;;;0.80;;
11935;SDS011;6027;48.576;9.180;2022-09-09T17:02:41;2.35;;;0.85;;
11935;SDS011;6027;48.576;9.180;2022-09-09T17:05:08;2.40;;;0.68;;
11935;SDS011;6027;48.576;9.180;2022-09-09T17:07:34;1.92;;;0.70;;
11935;SDS011;6027;48.576;9.180;2022-09-09T17:10:01;1.13;;;0.77;;
11935;SDS011;6027;48.576;9.180;2022-09-09T17:12:27;2.17;;;0.52;;
11935;SDS011;6027;48.576;9.180;2022-09-09T17:14:52;3.20;;;0.80;;
11935;SDS011;6027;48.576;9.180;2022-09-09T17:17:17;4.00;;;0.88;;
11935;SDS011;6027;48.576;9.180;2022-09-09T17:19:43;1.85;;;0.70;;
11935;SDS011;6027;48.576;9.180;2022-09-09T17:22:09;1.48;;;0.68;;
11935;SDS011;6027;48.576;9.180;2022-09-09T17:24:35;1.30;;;0.70;;
11935;SDS011;6027;48.576;9.180;2022-09-09T17:27:03;2.10;;;0.70;;
11935;SDS011;6027;48.576;9.180;2022-09-09T17:29:29;1.90;;;0.73;;
11935;SDS011;6027;48.576;9.180;2022-09-09T17:31:54;2.35;;;0.70;;
11935;SDS011;6027;48.576;9.180;2022-09-09T17:34:20;1.52;;;0.75;;
11935;SDS011;6027;48.576;9.180;2022-09-09T17:36:46;0.80;;;0.77;;